Toronto, Canada
Current Conditions -  °F | °C
As of 4:23 PM on Friday 31 Oct 2014 (Local Time) from CYYZ Reporting Station
Light Rain Light Rain  
Wind Chill: 37°   Ceiling: 1100
Heat Index: 43°   Visibility: 6mi
Dew Point: 41°   Wind: 9mph
Humidity: 93%   Direction: 70°ENE
Pressure: 29.91"   Gusts: NA
Location:  43.65°N, 79.39°W
Report Text: CYYZ 312023Z 07008KT 6SM -RA FEW005 BKN011 OVC016 06/05 A2991 RMK SF2SC5SC1 SLP133
Loading
Personal Weather Stations






























Interactive Weather Map
Tropical Storm Tracking
New forecast layout! Learn more

10-Day Weather Forecast

Advertisements
Track Severe Weather on mobile